tititudorancea.com
Station Historical Data
Daily Summary for February 15, 2018 Units:  English    Metric   Both
« Previous Day
Next Day »
Daily Weekly Monthly Yearly Custom
  High: Low: Average:
Temperature: TemperatureF °F 50.9 °F 61.3 °F
Dew Point: DewpointF °F 39.6 °F 46.5 °F
Humidity: Humidity % 41 % 59 %
Wind Speed: WindSpeedMPH mph 0.0 mph 4.4 mph
Wind Gust: WindSpeedGustMPH mph - -
Wind:- - West
Pressure: PressureIn in 29.85 in -
Precipitation: 0.00 in    
Historical Graphs
 
 
Ararat weather Find more about Weather in Ararat, AU


 



 


Tabular Data for February 15, 2018
Time Temperature Dew Point Pressure Wind Wind Speed Wind Gust Humidity Rainfall Rate (Hourly)
TemperatureF °F DewpointF °F PressureIn in Calm     Humidity % HourlyPrecipIn in
00:01 56.2 °F 41.6 °F 29.93 in SSW 0.7 mph 2.3 mph 58 % 0.00 in
00:06 55.5 °F 40.5 °F 29.93 in SSW 1.8 mph 3.5 mph 57 % 0.00 in
00:11 54.3 °F 40.3 °F 29.93 in SSW 0.3 mph 2.3 mph 59 % 0.00 in
00:16 53.4 °F 39.9 °F 29.94 in Calm     60 % 0.00 in
00:21 52.8 °F 39.7 °F 29.94 in Calm     61 % 0.00 in
00:26 52.2 °F 39.6 °F 29.94 in Calm     62 % 0.00 in
00:31 51.7 °F 39.9 °F 29.94 in Calm     64 % 0.00 in
00:36 51.3 °F 39.9 °F 29.94 in Calm     65 % 0.00 in
00:41 50.9 °F 40.3 °F 29.94 in Calm     67 % 0.00 in
00:46 51.4 °F 41.2 °F 29.94 in SSW 3.4 mph 5.8 mph 68 % 0.00 in
00:51 52.8 °F 42.1 °F 29.94 in SW 3.1 mph 7.0 mph 67 % 0.00 in
00:56 54.1 °F 42.6 °F 29.94 in SW 5.6 mph 8.1 mph 65 % 0.00 in
01:01 54.9 °F 42.5 °F 29.94 in SW 4.6 mph 8.1 mph 63 % 0.00 in
01:06 55.2 °F 42.4 °F 29.94 in SW 5.0 mph 6.9 mph 62 % 0.00 in
01:11 55.2 °F 42.4 °F 29.94 in SW 4.2 mph 10.4 mph 62 % 0.00 in
01:16 55.2 °F 42.4 °F 29.94 in SW 5.5 mph 8.1 mph 62 % 0.00 in
01:21 55.2 °F 42.4 °F 29.94 in SW 2.9 mph 3.5 mph 62 % 0.00 in
01:26 55.2 °F 42.4 °F 29.94 in SW 3.9 mph 8.1 mph 62 % 0.00 in
01:31 55.1 °F 42.3 °F 29.94 in SW 4.7 mph 5.8 mph 62 % 0.00 in
01:36 55.1 °F 42.3 °F 29.94 in SW 5.7 mph 8.1 mph 62 % 0.00 in
01:41 55.3 °F 42.5 °F 29.94 in SW 6.0 mph 10.4 mph 62 % 0.00 in
01:46 55.5 °F 42.7 °F 29.94 in WSW 7.1 mph 9.2 mph 62 % 0.00 in
01:51 55.5 °F 43.1 °F 29.94 in WSW 5.8 mph 8.1 mph 63 % 0.00 in
01:56 55.5 °F 43.1 °F 29.94 in WSW 7.3 mph 10.4 mph 63 % 0.00 in
02:01 55.4 °F 43.0 °F 29.94 in WSW 6.2 mph 9.2 mph 63 % 0.00 in
02:06 55.3 °F 43.3 °F 29.94 in North 6.4 mph 15.0 mph 64 % 0.00 in
02:11 55.2 °F 43.2 °F 29.94 in WSW 5.8 mph 9.2 mph 64 % 0.00 in
02:16 55.3 °F 43.7 °F 29.93 in North 5.1 mph 9.0 mph 65 % 0.00 in
02:21 55.2 °F 43.6 °F 29.93 in North 5.4 mph 8.1 mph 65 % 0.00 in
02:26 55.2 °F 44.0 °F 29.93 in WSW 4.1 mph 8.1 mph 66 % 0.00 in
02:31 55.1 °F 43.9 °F 29.93 in North 4.4 mph 6.9 mph 66 % 0.00 in
02:36 55.0 °F 44.2 °F 29.93 in WSW 4.7 mph 6.9 mph 67 % 0.00 in
02:41 55.1 °F 44.3 °F 29.92 in WSW 2.8 mph 5.0 mph 67 % 0.00 in
02:46 55.1 °F 43.9 °F 29.92 in SW 3.6 mph 5.0 mph 66 % 0.00 in
02:51 55.0 °F 44.2 °F 29.92 in WSW 3.6 mph 4.0 mph 67 % 0.00 in
02:56 54.9 °F 44.1 °F 29.92 in SW 3.3 mph 4.6 mph 67 % 0.00 in
03:01 54.7 °F 44.0 °F 29.92 in WSW 2.0 mph 3.5 mph 67 % 0.00 in
03:06 54.6 °F 43.9 °F 29.92 in North 1.6 mph 2.3 mph 67 % 0.00 in
03:11 54.5 °F 43.8 °F 29.92 in Calm     67 % 0.00 in
03:16 54.3 °F 44.0 °F 29.92 in Calm     68 % 0.00 in
03:21 54.1 °F 43.8 °F 29.92 in Calm     68 % 0.00 in
03:26 54.1 °F 44.2 °F 29.92 in Calm     69 % 0.00 in
03:31 54.1 °F 44.2 °F 29.92 in WSW 1.7 mph 2.3 mph 69 % 0.00 in
03:36 54.2 °F 44.2 °F 29.92 in WSW 1.5 mph 4.0 mph 69 % 0.00 in
03:41 54.7 °F 44.0 °F 29.92 in North 3.6 mph 4.6 mph 67 % 0.00 in
03:46 55.2 °F 44.0 °F 29.91 in North 2.1 mph 3.5 mph 66 % 0.00 in
03:51 55.4 °F 44.2 °F 29.91 in SW 2.5 mph 3.5 mph 66 % 0.00 in
03:56 55.6 °F 44.0 °F 29.91 in WSW 0.1 mph 1.2 mph 65 % 0.00 in
04:01 55.5 °F 43.9 °F 29.91 in Calm     65 % 0.00 in
04:06 55.6 °F 44.0 °F 29.91 in SW 2.2 mph 3.5 mph 65 % 0.00 in
04:11 55.6 °F 44.0 °F 29.91 in WSW 3.3 mph 3.5 mph 65 % 0.00 in
04:16 55.6 °F 44.0 °F 29.90 in WSW 2.1 mph 3.5 mph 65 % 0.00 in
04:21 55.5 °F 43.9 °F 29.90 in Calm     65 % 0.00 in
04:26 55.3 °F 43.7 °F 29.90 in Calm     65 % 0.00 in
04:31 55.1 °F 43.9 °F 29.90 in Calm     66 % 0.00 in
04:36 55.0 °F 43.8 °F 29.90 in North 1.3 mph 2.3 mph 66 % 0.00 in
04:41 54.5 °F 43.0 °F 29.90 in SW 0.3 mph 2.3 mph 65 % 0.00 in
04:46 53.8 °F 43.1 °F 29.90 in WSW 1.7 mph 3.0 mph 67 % 0.00 in
04:51 53.2 °F 42.9 °F 29.90 in North 1.1 mph 3.5 mph 68 % 0.00 in
04:56 53.1 °F 43.2 °F 29.91 in Calm   2.3 mph 69 % 0.00 in
05:01 53.0 °F 43.1 °F 29.91 in Calm     69 % 0.00 in
05:06 52.9 °F 43.0 °F 29.91 in North 2.3 mph 3.5 mph 69 % 0.00 in
05:11 52.4 °F 42.5 °F 29.91 in WSW 1.6 mph 3.5 mph 69 % 0.00 in
05:16 52.2 °F 42.7 °F 29.91 in WSW 1.6 mph 3.5 mph 70 % 0.00 in
05:21 52.2 °F 43.1 °F 29.90 in WSW 1.4 mph 2.3 mph 71 % 0.00 in
05:26 52.2 °F 43.1 °F 29.90 in WSW 0.7 mph 3.5 mph 71 % 0.00 in
05:31 52.3 °F 43.2 °F 29.90 in SW 1.6 mph 2.3 mph 71 % 0.00 in
05:36 52.5 °F 43.4 °F 29.90 in North 2.0 mph 4.6 mph 71 % 0.00 in
05:41 52.7 °F 43.2 °F 29.91 in WSW 2.9 mph 4.0 mph 70 % 0.00 in
05:46 52.9 °F 43.4 °F 29.91 in WSW 3.5 mph 4.0 mph 70 % 0.00 in
05:51 52.8 °F 42.9 °F 29.91 in WSW 1.0 mph 2.3 mph 69 % 0.00 in
05:56 52.6 °F 42.7 °F 29.91 in WSW 1.5 mph 2.3 mph 69 % 0.00 in
06:01 52.4 °F 42.9 °F 29.90 in WSW 1.3 mph 3.5 mph 70 % 0.00 in
06:06 52.1 °F 42.6 °F 29.91 in SW 0.9 mph 3.5 mph 70 % 0.00 in
06:11 51.8 °F 42.7 °F 29.91 in WSW 2.1 mph 3.5 mph 71 % 0.00 in
06:16 51.7 °F 42.6 °F 29.92 in North 2.5 mph 3.5 mph 71 % 0.00 in
06:21 51.7 °F 42.6 °F 29.92 in WSW 3.0 mph 4.0 mph 71 % 0.00 in
06:26 51.8 °F 43.1 °F 29.92 in WSW 2.9 mph 4.0 mph 72 % 0.00 in
06:31 52.2 °F 43.4 °F 29.92 in SW 3.7 mph 4.6 mph 72 % 0.00 in
06:36 52.6 °F 43.8 °F 29.92 in WSW 3.5 mph 4.6 mph 72 % 0.00 in
06:41 52.8 °F 44.0 °F 29.92 in WSW 2.4 mph 4.6 mph 72 % 0.00 in
06:46 52.9 °F 44.1 °F 29.93 in WSW 2.6 mph 3.5 mph 72 % 0.00 in
06:51 53.0 °F 43.8 °F 29.92 in WSW 1.1 mph 2.3 mph 71 % 0.00 in
06:56 52.6 °F 43.1 °F 29.92 in WSW 1.4 mph 2.3 mph 70 % 0.00 in
07:01 52.2 °F 42.7 °F 29.92 in WSW 1.8 mph 3.5 mph 70 % 0.00 in
07:06 51.7 °F 42.6 °F 29.93 in WSW 1.5 mph 2.3 mph 71 % 0.00 in
07:11 51.4 °F 42.7 °F 29.93 in SW 1.8 mph 3.5 mph 72 % 0.00 in
07:16 51.3 °F 42.9 °F 29.93 in WSW 1.8 mph 3.5 mph 73 % 0.00 in
07:21 51.4 °F 43.0 °F 29.93 in WSW 1.5 mph 3.0 mph 73 % 0.00 in
07:26 51.6 °F 43.2 °F 29.93 in WSW 1.5 mph 3.5 mph 73 % 0.00 in
07:31 51.9 °F 43.5 °F 29.93 in North 1.0 mph 3.5 mph 73 % 0.00 in
07:36 52.2 °F 43.8 °F 29.93 in WSW 2.0 mph 3.5 mph 73 % 0.00 in
07:41 52.5 °F 44.1 °F 29.93 in North 1.6 mph 3.5 mph 73 % 0.00 in
07:46 52.8 °F 44.4 °F 29.93 in North 1.4 mph 3.5 mph 73 % 0.00 in
07:51 53.0 °F 44.2 °F 29.93 in WSW 1.1 mph 3.5 mph 72 % 0.00 in
07:56 53.6 °F 44.8 °F 29.93 in North 3.4 mph 6.0 mph 72 % 0.00 in
08:01 54.1 °F 44.9 °F 29.93 in WSW 3.5 mph 5.8 mph 71 % 0.00 in
08:06 54.6 °F 45.0 °F 29.93 in North 3.7 mph 6.9 mph 70 % 0.00 in
08:11 55.0 °F 45.4 °F 29.93 in WSW 2.8 mph 4.6 mph 70 % 0.00 in
08:16 55.4 °F 45.4 °F 29.93 in WSW 4.8 mph 5.0 mph 69 % 0.00 in
08:21 55.7 °F 45.3 °F 29.93 in WSW 3.4 mph 3.5 mph 68 % 0.00 in
08:26 56.3 °F 45.5 °F 29.93 in West 4.0 mph 6.9 mph 67 % 0.00 in
08:31 56.8 °F 45.6 °F 29.93 in West 4.4 mph 6.9 mph 66 % 0.00 in
08:36 57.1 °F 45.4 °F 29.93 in North 3.1 mph 6.9 mph 65 % 0.00 in
08:41 57.5 °F 45.8 °F 29.93 in West 3.5 mph 4.6 mph 65 % 0.00 in
08:46 58.0 °F 45.9 °F 29.93 in West 4.6 mph 4.6 mph 64 % 0.00 in
08:51 58.5 °F 45.9 °F 29.93 in West 2.0 mph 4.6 mph 63 % 0.00 in
08:56 59.0 °F 46.0 °F 29.93 in NW 5.9 mph 8.1 mph 62 % 0.00 in
09:01 59.1 °F 46.1 °F 29.93 in NNW 4.1 mph 10.4 mph 62 % 0.00 in
09:07 59.3 °F 46.3 °F 29.93 in NNW 3.3 mph 6.9 mph 62 % 0.00 in
09:11 59.2 °F 46.2 °F 29.94 in NNW 2.8 mph 4.0 mph 62 % 0.00 in
09:17 59.2 °F 46.2 °F 29.94 in NNW 3.8 mph 7.0 mph 62 % 0.00 in
09:22 59.9 °F 46.4 °F 29.94 in WNW 5.1 mph 9.2 mph 61 % 0.00 in
09:27 60.1 °F 46.2 °F 29.94 in North 7.8 mph 10.4 mph 60 % 0.00 in
09:32 60.1 °F 46.6 °F 29.94 in West 4.3 mph 6.9 mph 61 % 0.00 in
09:37 60.7 °F 46.3 °F 29.94 in North 4.6 mph 4.6 mph 59 % 0.00 in
09:42 61.0 °F 45.2 °F 29.93 in West 3.6 mph 4.6 mph 56 % 0.00 in
09:47 60.9 °F 46.0 °F 29.94 in West 4.7 mph 5.8 mph 58 % 0.00 in
09:52 61.1 °F 45.7 °F 29.94 in West 5.7 mph 6.9 mph 57 % 0.00 in
09:57 61.3 °F 45.9 °F 29.94 in West 5.2 mph 8.1 mph 57 % 0.00 in
10:02 61.0 °F 45.7 °F 29.94 in North 2.5 mph 3.5 mph 57 % 0.00 in
10:07 61.5 °F 46.6 °F 29.94 in SSW 2.3 mph 4.6 mph 58 % 0.00 in
10:12 61.7 °F 46.3 °F 29.94 in SSW 2.9 mph 4.6 mph 57 % 0.00 in
10:17 61.7 °F 46.3 °F 29.94 in SW 4.0 mph 7.0 mph 57 % 0.00 in
10:22 61.8 °F 46.4 °F 29.94 in West 5.7 mph 8.1 mph 57 % 0.00 in
10:27 61.7 °F 45.8 °F 29.94 in West 4.3 mph 6.9 mph 56 % 0.00 in
10:32 61.7 °F 46.3 °F 29.94 in WNW 3.1 mph 8.1 mph 57 % 0.00 in
10:37 61.9 °F 46.0 °F 29.94 in WNW 3.3 mph 5.0 mph 56 % 0.00 in
10:42 62.2 °F 46.3 °F 29.94 in North 4.8 mph 6.9 mph 56 % 0.00 in
10:47 62.4 °F 46.5 °F 29.94 in North 4.0 mph 5.8 mph 56 % 0.00 in
10:52 62.5 °F 46.6 °F 29.94 in WSW 2.4 mph 4.0 mph 56 % 0.00 in
10:57 62.9 °F 46.5 °F 29.94 in West 1.7 mph 6.0 mph 55 % 0.00 in
11:02 63.4 °F 46.5 °F 29.93 in West 7.0 mph 10.4 mph 54 % 0.00 in
11:07 63.8 °F 47.3 °F 29.93 in North 4.3 mph 6.9 mph 55 % 0.00 in
11:12 64.2 °F 46.7 °F 29.93 in WNW 2.8 mph 4.6 mph 53 % 0.00 in
11:17 64.0 °F 46.0 °F 29.94 in SW 6.1 mph 9.2 mph 52 % 0.00 in
11:22 63.9 °F 46.4 °F 29.94 in SW 5.3 mph 7.0 mph 53 % 0.00 in
11:27 64.2 °F 46.2 °F 29.93 in SW 4.5 mph 6.9 mph 52 % 0.00 in
11:32 64.3 °F 46.3 °F 29.93 in SW 4.2 mph 8.1 mph 52 % 0.00 in
11:37 64.6 °F 46.6 °F 29.93 in SSW 3.3 mph 5.8 mph 52 % 0.00 in
11:42 65.1 °F 46.5 °F 29.93 in SSW 3.1 mph 3.5 mph 51 % 0.00 in
11:47 65.2 °F 47.1 °F 29.93 in SW 4.6 mph 5.8 mph 52 % 0.00 in
11:52 65.3 °F 47.2 °F 29.93 in SW 0.8 mph 1.2 mph 52 % 0.00 in
11:57 65.9 °F 46.7 °F 29.92 in WSW 3.1 mph 3.5 mph 50 % 0.00 in
12:02 66.2 °F 46.5 °F 29.92 in WSW 5.1 mph 6.9 mph 49 % 0.00 in
12:07 67.1 °F 46.7 °F 29.93 in WSW 1.2 mph 3.5 mph 48 % 0.00 in
12:12 68.1 °F 46.5 °F 29.92 in North 8.4 mph 10.4 mph 46 % 0.00 in
12:17 67.5 °F 46.0 °F 29.92 in SW 3.8 mph 5.8 mph 46 % 0.00 in
12:22 67.3 °F 46.4 °F 29.92 in SW 0.9 mph 3.0 mph 47 % 0.00 in
12:27 67.4 °F 45.9 °F 29.92 in SW 5.4 mph 10.4 mph 46 % 0.00 in
12:32 67.2 °F 46.3 °F 29.92 in SW 5.0 mph 6.0 mph 47 % 0.00 in
12:37 66.9 °F 46.0 °F 29.91 in SW 3.0 mph 6.9 mph 47 % 0.00 in
12:42 67.4 °F 45.3 °F 29.92 in West 3.5 mph 10.4 mph 45 % 0.00 in
12:47 67.5 °F 45.4 °F 29.92 in WSW 6.5 mph 8.1 mph 45 % 0.00 in
12:52 67.3 °F 46.4 °F 29.91 in North 6.3 mph 10.4 mph 47 % 0.00 in
12:57 67.5 °F 46.0 °F 29.91 in WSW 4.2 mph 5.0 mph 46 % 0.00 in
13:02 67.8 °F 46.3 °F 29.91 in SW 3.6 mph 5.0 mph 46 % 0.00 in
13:07 68.7 °F 45.9 °F 29.90 in SSE 5.0 mph 6.9 mph 44 % 0.00 in
13:12 68.3 °F 46.7 °F 29.90 in NNW 5.5 mph 6.0 mph 46 % 0.00 in
13:17 68.0 °F 46.4 °F 29.90 in NNW 0.9 mph 2.3 mph 46 % 0.00 in
13:22 68.1 °F 46.5 °F 29.90 in NNW 4.6 mph 5.8 mph 46 % 0.00 in
13:27 68.6 °F 46.4 °F 29.90 in SW 3.3 mph 5.0 mph 45 % 0.00 in
13:33 68.8 °F 46.6 °F 29.90 in SW 2.1 mph 3.5 mph 45 % 0.00 in
13:38 69.4 °F 45.9 °F 29.90 in West 2.3 mph 8.1 mph 43 % 0.00 in
13:43 69.2 °F 46.4 °F 29.90 in NW 3.8 mph 10.4 mph 44 % 0.00 in
13:48 69.0 °F 46.2 °F 29.90 in NW 2.5 mph 3.5 mph 44 % 0.00 in
13:53 68.9 °F 45.5 °F 29.90 in North 4.3 mph 8.1 mph 43 % 0.00 in
13:58 69.8 °F 46.9 °F 29.89 in WNW 6.7 mph 10.4 mph 44 % 0.00 in
14:03 71.1 °F 46.2 °F 29.89 in NNW 4.3 mph 6.9 mph 41 % 0.00 in
14:08 70.2 °F 46.0 °F 29.89 in WNW 8.0 mph 10.4 mph 42 % 0.00 in
14:13 70.0 °F 45.8 °F 29.89 in North 6.0 mph 9.2 mph 42 % 0.00 in
14:18 70.0 °F 45.8 °F 29.89 in North 6.1 mph 9.2 mph 42 % 0.00 in
14:23 70.2 °F 46.6 °F 29.89 in WSW 8.5 mph 11.5 mph 43 % 0.00 in
14:28 70.0 °F 46.5 °F 29.89 in West 6.4 mph 10.4 mph 43 % 0.00 in
14:33 69.8 °F 46.3 °F 29.89 in WNW 9.6 mph 13.8 mph 43 % 0.00 in
14:38 69.3 °F 46.4 °F 29.89 in North 9.8 mph 12.7 mph 44 % 0.00 in
14:43 69.2 °F 46.9 °F 29.89 in WSW 8.2 mph 11.5 mph 45 % 0.00 in
14:48 69.2 °F 46.9 °F 29.88 in WNW 10.5 mph 13.8 mph 45 % 0.00 in
14:53 69.0 °F 46.2 °F 29.88 in NW 5.3 mph 9.2 mph 44 % 0.00 in
14:58 68.9 °F 46.7 °F 29.88 in NNW 6.9 mph 9.2 mph 45 % 0.00 in
15:03 68.9 °F 46.7 °F 29.88 in NW 8.3 mph 13.8 mph 45 % 0.00 in
15:08 68.9 °F 47.3 °F 29.88 in NW 6.6 mph 10.4 mph 46 % 0.00 in
15:13 68.9 °F 47.3 °F 29.88 in West 8.8 mph 12.7 mph 46 % 0.00 in
15:18 69.2 °F 47.5 °F 29.88 in WNW 8.5 mph 12.0 mph 46 % 0.00 in
15:23 69.7 °F 48.0 °F 29.88 in West 7.6 mph 11.5 mph 46 % 0.00 in
15:28 69.6 °F 47.3 °F 29.88 in WNW 7.1 mph 13.8 mph 45 % 0.00 in
15:33 69.6 °F 47.9 °F 29.89 in North 6.4 mph 11.0 mph 46 % 0.00 in
15:38 69.3 °F 48.2 °F 29.88 in North 10.1 mph 15.0 mph 47 % 0.00 in
15:43 69.4 °F 48.9 °F 29.88 in WSW 5.6 mph 9.0 mph 48 % 0.00 in
15:48 69.8 °F 48.7 °F 29.88 in WNW 11.3 mph 15.0 mph 47 % 0.00 in
15:53 69.6 °F 48.5 °F 29.88 in West 6.8 mph 11.5 mph 47 % 0.00 in
15:58 69.7 °F 48.0 °F 29.88 in WNW 9.4 mph 13.8 mph 46 % 0.00 in
16:03 69.8 °F 48.1 °F 29.88 in WNW 11.2 mph 13.0 mph 46 % 0.00 in
16:08 69.4 °F 48.3 °F 29.88 in North 7.4 mph 11.5 mph 47 % 0.00 in
16:13 68.9 °F 47.8 °F 29.88 in WSW 10.0 mph 14.0 mph 47 % 0.00 in
16:18 68.6 °F 48.1 °F 29.88 in West 8.6 mph 11.5 mph 48 % 0.00 in
16:23 68.7 °F 48.2 °F 29.88 in West 9.2 mph 11.5 mph 48 % 0.00 in
16:28 68.5 °F 48.0 °F 29.87 in SW 6.0 mph 8.1 mph 48 % 0.00 in
16:33 68.3 °F 47.8 °F 29.87 in WSW 6.8 mph 9.2 mph 48 % 0.00 in
16:38 68.2 °F 48.3 °F 29.86 in North 5.1 mph 7.0 mph 49 % 0.00 in
16:43 68.8 °F 48.3 °F 29.87 in WNW 5.3 mph 6.0 mph 48 % 0.00 in
16:48 68.9 °F 48.4 °F 29.87 in NW 5.2 mph 7.0 mph 48 % 0.00 in
16:53 69.1 °F 48.0 °F 29.86 in WNW 7.5 mph 9.2 mph 47 % 0.00 in
16:58 69.4 °F 47.7 °F 29.86 in WSW 6.3 mph 9.2 mph 46 % 0.00 in
17:03 69.5 °F 47.8 °F 29.86 in WSW 7.1 mph 9.0 mph 46 % 0.00 in
17:08 69.6 °F 47.9 °F 29.86 in North 6.9 mph 9.2 mph 46 % 0.00 in
17:13 69.4 °F 47.7 °F 29.86 in West 9.5 mph 15.0 mph 46 % 0.00 in
17:18 69.3 °F 47.6 °F 29.86 in West 8.3 mph 11.5 mph 46 % 0.00 in
17:23 69.3 °F 47.6 °F 29.86 in WSW 7.2 mph 10.4 mph 46 % 0.00 in
17:28 69.3 °F 47.6 °F 29.86 in WNW 8.3 mph 11.5 mph 46 % 0.00 in
17:33 69.7 °F 48.6 °F 29.86 in North 9.7 mph 12.7 mph 47 % 0.00 in
17:38 69.9 °F 48.2 °F 29.85 in SW 5.3 mph 7.0 mph 46 % 0.00 in
17:43 69.4 °F 47.7 °F 29.85 in WNW 4.4 mph 5.8 mph 46 % 0.00 in
17:48 69.3 °F 48.2 °F 29.85 in WNW 3.9 mph 5.8 mph 47 % 0.00 in
17:53 69.5 °F 48.4 °F 29.86 in West 5.5 mph 8.1 mph 47 % 0.00 in
17:58 69.4 °F 48.3 °F 29.85 in SSW 7.7 mph 11.5 mph 47 % 0.00 in
18:03 69.6 °F 48.5 °F 29.85 in North 6.7 mph 10.4 mph 47 % 0.00 in
18:08 69.8 °F 48.7 °F 29.85 in WSW 6.4 mph 9.2 mph 47 % 0.00 in
18:13 69.9 °F 48.2 °F 29.85 in North 4.8 mph 10.4 mph 46 % 0.00 in
18:18 69.8 °F 48.1 °F 29.85 in SW 5.7 mph 9.2 mph 46 % 0.00 in
18:23 69.5 °F 48.4 °F 29.85 in West 7.6 mph 10.4 mph 47 % 0.00 in
18:28 69.6 °F 48.5 °F 29.85 in WSW 7.1 mph 11.5 mph 47 % 0.00 in
18:33 69.6 °F 48.5 °F 29.85 in WSW 9.3 mph 11.5 mph 47 % 0.00 in
18:38 69.6 °F 48.5 °F 29.85 in SW 8.2 mph 11.0 mph 47 % 0.00 in
18:43 69.4 °F 48.3 °F 29.85 in West 7.2 mph 9.2 mph 47 % 0.00 in
18:48 69.2 °F 48.7 °F 29.85 in West 7.0 mph 11.0 mph 48 % 0.00 in
18:53 69.0 °F 48.5 °F 29.85 in West 11.4 mph 13.8 mph 48 % 0.00 in
18:58 69.1 °F 49.1 °F 29.85 in West 4.6 mph 9.2 mph 49 % 0.00 in
19:03 69.2 °F 48.7 °F 29.85 in North 5.0 mph 9.0 mph 48 % 0.00 in
19:08 68.8 °F 48.9 °F 29.85 in SW 9.4 mph 11.5 mph 49 % 0.00 in
19:13 68.4 °F 49.0 °F 29.85 in WSW 5.4 mph 8.1 mph 50 % 0.00 in
19:18 68.2 °F 49.4 °F 29.86 in WSW 2.5 mph 3.5 mph 51 % 0.00 in
19:23 68.3 °F 49.5 °F 29.86 in SW 5.5 mph 10.4 mph 51 % 0.00 in
19:28 68.1 °F 49.3 °F 29.86 in SW 6.7 mph 11.5 mph 51 % 0.00 in
19:33 68.0 °F 49.2 °F 29.86 in North 5.3 mph 6.9 mph 51 % 0.00 in
19:38 67.9 °F 49.6 °F 29.86 in SW 7.8 mph 9.2 mph 52 % 0.00 in
19:40 67.8 °F 49.5 °F 29.86 in SW 2.6 mph 4.0 mph 52 % 0.00 in
19:45 67.9 °F 49.6 °F 29.86 in WSW 8.6 mph 12.7 mph 52 % 0.00 in
19:50 68.1 °F 49.3 °F 29.86 in WSW 3.8 mph 6.9 mph 51 % 0.00 in
19:55 68.4 °F 49.0 °F 29.86 in North 6.3 mph 9.2 mph 50 % 0.00 in
20:00 68.2 °F 49.4 °F 29.86 in WSW 3.8 mph 5.8 mph 51 % 0.00 in
20:05 67.9 °F 49.1 °F 29.86 in WSW 5.6 mph 8.1 mph 51 % 0.00 in
20:10 67.7 °F 49.4 °F 29.86 in WSW 3.7 mph 6.9 mph 52 % 0.00 in
20:15 67.5 °F 49.3 °F 29.87 in WSW 5.7 mph 9.2 mph 52 % 0.00 in
20:20 67.3 °F 49.6 °F 29.87 in North 7.5 mph 11.5 mph 53 % 0.00 in
20:25 67.1 °F 49.9 °F 29.87 in WSW 5.7 mph 10.4 mph 54 % 0.00 in
20:30 66.9 °F 50.2 °F 29.87 in West 6.7 mph 10.0 mph 55 % 0.00 in
20:35 66.7 °F 50.0 °F 29.87 in WSW 7.8 mph 11.5 mph 55 % 0.00 in
20:40 66.6 °F 49.9 °F 29.87 in North 4.8 mph 8.1 mph 55 % 0.00 in
20:45 66.4 °F 50.2 °F 29.87 in WSW 5.3 mph 8.1 mph 56 % 0.00 in
20:50 66.2 °F 50.5 °F 29.87 in North 3.7 mph 5.8 mph 57 % 0.00 in
20:55 65.9 °F 50.7 °F 29.87 in SW 7.5 mph 10.4 mph 58 % 0.00 in
21:00 65.7 °F 51.0 °F 29.87 in SW 2.6 mph 4.6 mph 59 % 0.00 in
21:05 65.3 °F 51.9 °F 29.87 in SSW 9.2 mph 11.5 mph 62 % 0.00 in
21:10 64.6 °F 52.6 °F 29.87 in SSW 5.3 mph 8.1 mph 65 % 0.00 in
21:15 63.9 °F 53.1 °F 29.88 in SSW 3.3 mph 8.1 mph 68 % 0.00 in
21:20 63.4 °F 53.0 °F 29.87 in SSW 6.3 mph 8.1 mph 69 % 0.00 in
21:25 63.0 °F 53.1 °F 29.88 in SSW 3.8 mph 5.0 mph 70 % 0.00 in
21:30 62.9 °F 53.4 °F 29.87 in SSW 4.1 mph 5.8 mph 71 % 0.00 in
21:35 62.7 °F 53.2 °F 29.87 in North 3.6 mph 6.9 mph 71 % 0.00 in
21:40 62.7 °F 53.2 °F 29.88 in SSW 4.6 mph 5.8 mph 71 % 0.00 in
21:45 62.8 °F 53.3 °F 29.88 in North 6.1 mph 10.4 mph 71 % 0.00 in
21:50 62.9 °F 53.4 °F 29.88 in South 6.1 mph 10.4 mph 71 % 0.00 in
21:55 62.9 °F 53.4 °F 29.88 in SW 4.7 mph 10.4 mph 71 % 0.00 in
22:00 62.9 °F 53.4 °F 29.88 in North 6.2 mph 9.2 mph 71 % 0.00 in
22:05 62.8 °F 52.9 °F 29.88 in SW 6.8 mph 10.4 mph 70 % 0.00 in
22:10 62.6 °F 52.7 °F 29.88 in SW 6.0 mph 10.4 mph 70 % 0.00 in
22:15 62.5 °F 52.6 °F 29.88 in WSW 10.5 mph 16.1 mph 70 % 0.00 in
22:20 62.5 °F 53.3 °F 29.89 in SW 6.9 mph 10.4 mph 72 % 0.00 in
22:25 62.5 °F 53.0 °F 29.89 in WSW 8.4 mph 12.7 mph 71 % 0.00 in
22:30 62.4 °F 52.9 °F 29.89 in SW 6.9 mph 10.4 mph 71 % 0.00 in
22:35 62.4 °F 53.3 °F 29.89 in WSW 6.7 mph 6.9 mph 72 % 0.00 in
22:40 62.2 °F 53.4 °F 29.89 in North 9.3 mph 13.0 mph 73 % 0.00 in
22:45 61.7 °F 53.7 °F 29.89 in SSW 6.7 mph 11.5 mph 75 % 0.00 in
22:50 61.2 °F 53.9 °F 29.89 in SW 6.2 mph 13.8 mph 77 % 0.00 in
22:55 60.5 °F 54.6 °F 29.89 in North 4.1 mph 8.1 mph 81 % 0.00 in
23:00 60.0 °F 54.5 °F 29.89 in WSW 1.9 mph 3.5 mph 82 % 0.00 in
23:05 59.8 °F 55.0 °F 29.89 in WSW 1.8 mph 3.5 mph 84 % 0.00 in
23:10 59.6 °F 54.8 °F 29.89 in SW 5.5 mph 6.9 mph 84 % 0.00 in
23:15 59.7 °F 54.9 °F 29.89 in North 4.0 mph 5.8 mph 84 % 0.00 in
23:20 59.7 °F 54.9 °F 29.89 in SW 3.5 mph 4.6 mph 84 % 0.00 in
23:26 59.7 °F 54.9 °F 29.89 in SW 2.9 mph 4.6 mph 84 % 0.00 in
23:30 59.7 °F 54.9 °F 29.88 in SW 2.4 mph 3.5 mph 84 % 0.00 in
23:36 59.7 °F 54.9 °F 29.88 in SW 4.1 mph 6.0 mph 84 % 0.00 in
23:40 59.7 °F 54.9 °F 29.88 in SW 3.0 mph 3.5 mph 84 % 0.00 in
23:45 59.7 °F 54.5 °F 29.88 in SW 4.1 mph 5.8 mph 83 % 0.00 in
23:51 59.7 °F 54.5 °F 29.88 in North 3.3 mph 3.5 mph 83 % 0.00 in
23:55 59.7 °F 54.5 °F 29.88 in North 3.3 mph 5.8 mph 83 % 0.00 in
Ararat Weather
Compliments of Weather Underground - 2 mb
Click here to send mail.


ABOUT

Live weather data from Ararat, Victoria, Australia, 3377
Data uploaded from Cumulus every 5 minutes to Weather Underground.
This site then downloads the raw data for formatting and display.
Metric and imperial data can be displayed. Graphs and historical data available.
Includes Sun and Moon times and rain image live from BOM.

Check out Ararat Weather on Facebook, Twitter and Google +

Help support ongoing costs by checking out the ads





Follow @AraratWeather